Time;durP1;ratioP1;P1;durP2;ratioP2;P2;SDS_P1;SDS_P2;PMS_P1;PMS_P2;Temp;Humidity;BMP_temperature;BMP_pressure;BME280_temperature;BME280_humidity;BME280_pressure;Samples;Min_cycle;Max_cycle;Signal;HPM_P1;HPM_P2
2023/09/26 00:02:23;;;;;;;7.65;5.20;;;18.30;99.90;;;;;;5100100;27;20054;-81
2023/09/26 00:04:49;;;;;;;7.35;4.90;;;18.30;99.90;;;;;;5097886;27;20184;-82
2023/09/26 00:07:15;;;;;;;7.10;5.72;;;18.20;99.90;;;;;;5077318;27;20126;-82
2023/09/26 00:09:41;;;;;;;5.72;4.80;;;18.30;99.90;;;;;;5088342;27;20035;-80
2023/09/26 00:12:08;;;;;;;8.25;5.30;;;18.30;99.90;;;;;;5110370;28;20173;-80
2023/09/26 00:14:34;;;;;;;6.25;5.03;;;18.30;99.90;;;;;;5088074;27;20047;-82
2023/09/26 00:17:00;;;;;;;6.10;5.40;;;18.30;99.90;;;;;;5098873;27;20493;-80
2023/09/26 00:19:25;;;;;;;7.05;5.43;;;18.30;99.90;;;;;;5083482;27;20043;-82
2023/09/26 00:21:51;;;;;;;6.97;5.45;;;18.30;99.90;;;;;;5094751;28;20130;-82
2023/09/26 00:24:17;;;;;;;7.40;6.10;;;18.30;99.90;;;;;;5085035;28;20047;-80
2023/09/26 00:26:43;;;;;;;7.03;5.90;;;18.30;99.90;;;;;;5093987;28;20043;-82
2023/09/26 00:29:09;;;;;;;7.68;4.97;;;18.30;99.90;;;;;;5084263;28;20028;-80
2023/09/26 00:31:35;;;;;;;5.85;4.95;;;18.30;99.90;;;;;;5074559;28;20074;-81
2023/09/26 00:34:00;;;;;;;7.20;5.35;;;18.40;99.90;;;;;;5092181;28;20035;-80
2023/09/26 00:36:26;;;;;;;8.10;5.97;;;18.40;99.90;;;;;;5064647;28;20044;-82
2023/09/26 00:38:53;;;;;;;6.60;5.18;;;18.40;99.90;;;;;;5073861;28;20058;-80
2023/09/26 00:41:20;;;;;;;7.30;5.60;;;18.40;99.90;;;;;;5078937;28;20127;-82
2023/09/26 00:43:45;;;;;;;6.68;5.15;;;18.40;99.90;;;;;;5097368;28;20035;-80
2023/09/26 00:46:11;;;;;;;6.50;5.45;;;18.40;99.90;;;;;;5094984;28;20043;-81
2023/09/26 00:48:38;;;;;;;7.20;5.47;;;18.40;99.90;;;;;;5107620;28;20044;-82
2023/09/26 00:51:06;;;;;;;6.95;5.22;;;18.40;99.90;;;;;;5087408;28;20105;-82
2023/09/26 00:53:32;;;;;;;10.00;5.47;;;18.40;99.90;;;;;;5106523;28;20089;-81
2023/09/26 00:55:59;;;;;;;7.60;5.30;;;18.40;99.90;;;;;;5083393;27;20044;-81
2023/09/26 00:58:25;;;;;;;5.47;4.97;;;18.40;99.90;;;;;;5093216;28;20404;-82
2023/09/26 01:00:55;;;;;;;6.10;5.30;;;18.40;99.90;;;;;;5090315;28;20039;-81
2023/09/26 01:03:21;;;;;;;9.88;5.57;;;18.40;99.90;;;;;;5104796;28;20059;-80
2023/09/26 01:05:47;;;;;;;6.65;5.30;;;18.40;99.90;;;;;;5090916;28;20038;-83
2023/09/26 01:08:13;;;;;;;7.70;6.13;;;18.40;99.90;;;;;;5100584;28;20031;-81
2023/09/26 01:10:39;;;;;;;6.97;5.63;;;18.40;99.90;;;;;;5108983;28;20043;-78
2023/09/26 01:13:05;;;;;;;7.80;5.55;;;18.40;99.90;;;;;;5105499;28;20442;-80
2023/09/26 01:15:39;;;;;;;7.57;5.95;;;18.40;99.90;;;;;;5079987;28;20062;-78
2023/09/26 01:18:09;;;;;;;6.47;5.88;;;18.40;99.90;;;;;;5094959;28;20059;-78
2023/09/26 01:20:39;;;;;;;6.88;5.32;;;18.40;99.90;;;;;;5086694;28;20119;-79
2023/09/26 01:23:06;;;;;;;5.63;5.00;;;18.40;99.90;;;;;;5107109;28;20040;-78
2023/09/26 01:25:34;;;;;;;6.43;5.70;;;18.40;99.90;;;;;;5109291;28;20181;-79
2023/09/26 01:28:05;;;;;;;7.32;5.78;;;18.40;99.90;;;;;;5090931;28;20036;-79
2023/09/26 01:30:33;;;;;;;7.82;6.07;;;18.40;99.90;;;;;;5075057;28;20384;-80
2023/09/26 01:32:59;;;;;;;7.97;6.22;;;18.40;99.90;;;;;;5071009;28;20036;-80
2023/09/26 01:35:25;;;;;;;7.43;6.25;;;18.40;99.90;;;;;;5078916;28;20132;-79
2023/09/26 01:37:51;;;;;;;7.88;6.63;;;18.30;99.90;;;;;;5075056;28;20081;-82
2023/09/26 01:40:17;;;;;;;9.88;7.70;;;18.30;99.90;;;;;;5057203;28;20075;-80
2023/09/26 01:42:44;;;;;;;7.80;6.90;;;18.20;99.90;;;;;;5058164;28;20396;-80
2023/09/26 01:45:10;;;;;;;9.13;6.90;;;18.20;99.90;;;;;;5074286;28;20032;-82
2023/09/26 01:47:51;;;;;;;7.85;6.68;;;18.10;99.90;;;;;;5074309;28;20047;-80
2023/09/26 01:50:19;;;;;;;9.48;7.10;;;18.10;99.90;;;;;;5102148;28;20036;-82
2023/09/26 01:52:46;;;;;;;9.25;7.72;;;18.10;99.90;;;;;;5070253;28;20051;-82
2023/09/26 01:55:17;;;;;;;9.00;7.68;;;18.00;99.90;;;;;;5093168;28;20077;-84
2023/09/26 01:57:43;;;;;;;8.65;7.72;;;18.00;99.90;;;;;;5094455;28;20071;-82
2023/09/26 02:00:11;;;;;;;9.30;8.32;;;18.00;99.90;;;;;;5111304;28;20151;-82
2023/09/26 02:02:41;;;;;;;11.30;8.38;;;18.00;99.90;;;;;;5111095;28;20043;-81
2023/09/26 02:05:12;;;;;;;10.02;8.55;;;17.90;99.90;;;;;;5057575;28;20046;-81
2023/09/26 02:07:38;;;;;;;9.23;7.75;;;17.90;99.90;;;;;;5108791;28;20071;-82
2023/09/26 02:10:05;;;;;;;11.02;8.13;;;17.90;99.90;;;;;;5088790;28;20169;-81
2023/09/26 02:12:36;;;;;;;10.85;9.15;;;18.00;99.90;;;;;;5076914;28;20602;-82
2023/09/26 02:15:04;;;;;;;8.38;7.47;;;18.00;99.90;;;;;;5088019;28;20036;-83
2023/09/26 02:17:35;;;;;;;10.57;8.73;;;18.00;99.90;;;;;;5089720;28;20044;-82
2023/09/26 02:20:12;;;;;;;9.90;8.73;;;18.00;99.90;;;;;;5073897;28;20047;-80
2023/09/26 02:22:46;;;;;;;11.65;8.85;;;18.00;99.90;;;;;;5089572;28;20044;-81
2023/09/26 02:25:13;;;;;;;10.82;8.90;;;18.00;99.90;;;;;;5079854;28;20056;-79
2023/09/26 02:27:44;;;;;;;9.93;8.95;;;18.00;99.90;;;;;;5093346;28;20070;-80
2023/09/26 02:30:11;;;;;;;10.88;9.52;;;18.10;99.90;;;;;;5088052;28;20040;-82
2023/09/26 02:32:38;;;;;;;11.75;9.45;;;18.10;99.90;;;;;;5089868;28;20416;-82
2023/09/26 02:35:06;;;;;;;10.20;8.90;;;18.10;99.90;;;;;;5064482;28;20057;-81
2023/09/26 02:37:32;;;;;;;10.32;9.25;;;18.00;99.90;;;;;;5085193;28;20111;-80
2023/09/26 02:39:58;;;;;;;12.05;8.80;;;18.10;99.90;;;;;;5077139;28;20047;-80
2023/09/26 02:42:23;;;;;;;11.77;9.82;;;18.00;99.90;;;;;;5103627;28;20040;-80
2023/09/26 02:44:51;;;;;;;12.65;10.02;;;18.00;99.90;;;;;;5082556;28;20063;-82
2023/09/26 02:47:17;;;;;;;11.10;10.00;;;18.00;99.90;;;;;;5073620;28;21808;-81
2023/09/26 02:49:43;;;;;;;12.40;9.25;;;17.90;99.90;;;;;;5086970;28;20036;-81
2023/09/26 02:52:08;;;;;;;10.40;9.40;;;17.90;99.90;;;;;;5075169;28;20036;-82
2023/09/26 02:54:34;;;;;;;13.25;9.95;;;17.90;99.90;;;;;;5092847;28;20126;-80
2023/09/26 02:57:01;;;;;;;12.45;9.60;;;17.80;99.90;;;;;;5106339;28;20451;-82
2023/09/26 02:59:28;;;;;;;11.43;10.30;;;17.80;99.90;;;;;;5067978;28;20043;-82
2023/09/26 03:01:53;;;;;;;10.50;9.40;;;17.70;99.90;;;;;;5080292;28;20043;-82
2023/09/26 03:04:19;;;;;;;14.55;10.45;;;17.70;99.90;;;;;;5059356;28;20036;-80
2023/09/26 03:06:45;;;;;;;11.63;10.43;;;17.70;99.90;;;;;;5079572;28;20036;-80
2023/09/26 03:09:11;;;;;;;11.20;9.73;;;17.60;99.90;;;;;;5068857;28;20040;-81
2023/09/26 03:11:36;;;;;;;10.82;9.73;;;17.60;99.90;;;;;;5080643;28;20071;-81
2023/09/26 03:14:02;;;;;;;12.07;9.80;;;17.50;99.90;;;;;;5101734;28;20078;-81
2023/09/26 03:16:28;;;;;;;12.57;11.27;;;17.50;99.90;;;;;;5083472;28;20040;-81
2023/09/26 03:18:54;;;;;;;11.88;10.57;;;17.50;99.90;;;;;;5066596;28;20040;-81
2023/09/26 03:21:21;;;;;;;11.10;10.00;;;17.40;99.90;;;;;;5076530;28;20039;-81
2023/09/26 03:23:47;;;;;;;12.32;10.88;;;17.40;99.90;;;;;;5073035;27;20415;-82
2023/09/26 03:26:14;;;;;;;11.40;10.30;;;17.40;99.90;;;;;;5083194;27;20035;-81
2023/09/26 03:28:40;;;;;;;13.38;11.35;;;17.40;99.90;;;;;;5107981;28;20054;-81
2023/09/26 03:31:08;;;;;;;13.57;10.70;;;17.30;99.90;;;;;;5078984;28;20035;-81
2023/09/26 03:33:35;;;;;;;11.90;10.75;;;17.20;99.90;;;;;;5091371;27;20043;-82
2023/09/26 03:36:01;;;;;;;12.45;11.15;;;17.20;99.90;;;;;;5087150;28;20049;-81
2023/09/26 03:38:26;;;;;;;12.05;10.32;;;17.10;99.90;;;;;;5068170;28;20079;-81
2023/09/26 03:40:58;;;;;;;13.65;10.98;;;17.00;99.90;;;;;;5075908;28;20116;-81
2023/09/26 03:43:28;;;;;;;12.05;10.85;;;17.00;99.90;;;;;;5096780;28;20046;-81
2023/09/26 03:46:02;;;;;;;13.85;10.73;;;16.90;99.90;;;;;;5094926;28;20054;-80
2023/09/26 03:48:28;;;;;;;13.48;12.07;;;16.90;99.90;;;;;;5071207;28;20165;-81
2023/09/26 03:50:55;;;;;;;12.50;10.85;;;16.80;99.90;;;;;;5090464;28;20045;-81
2023/09/26 03:53:21;;;;;;;11.60;10.50;;;16.70;99.90;;;;;;5089199;28;20070;-81
2023/09/26 03:55:57;;;;;;;11.63;10.43;;;16.80;99.90;;;;;;5099576;28;20071;-80
2023/09/26 03:58:23;;;;;;;12.40;10.75;;;16.80;99.90;;;;;;5106674;28;20491;-77
2023/09/26 04:00:48;;;;;;;15.00;11.82;;;16.80;99.90;;;;;;5101297;28;20055;-79
2023/09/26 04:03:14;;;;;;;12.05;10.88;;;16.70;99.90;;;;;;5075743;28;20035;-82
2023/09/26 04:05:40;;;;;;;13.20;11.50;;;16.70;99.90;;;;;;5067451;28;20047;-80
2023/09/26 04:08:07;;;;;;;13.27;11.68;;;16.70;99.90;;;;;;5082179;28;20027;-82
2023/09/26 04:10:36;;;;;;;12.30;10.30;;;16.60;99.90;;;;;;5088387;28;20124;-80
2023/09/26 04:13:02;;;;;;;13.68;11.07;;;16.60;99.90;;;;;;5075777;28;20039;-79
2023/09/26 04:15:28;;;;;;;11.65;10.45;;;16.60;99.90;;;;;;5091792;28;20043;-78
2023/09/26 04:17:54;;;;;;;12.00;10.63;;;16.60;99.90;;;;;;5068605;28;20048;-79
2023/09/26 04:20:20;;;;;;;14.80;11.77;;;16.50;99.90;;;;;;5090731;28;20597;-79
2023/09/26 04:22:47;;;;;;;12.20;11.07;;;16.50;99.90;;;;;;5071358;28;20123;-80
2023/09/26 04:25:13;;;;;;;12.95;11.73;;;16.40;99.90;;;;;;5080835;28;20060;-80
2023/09/26 04:27:39;;;;;;;12.90;11.43;;;16.40;99.90;;;;;;5103325;28;20046;-83
2023/09/26 04:30:07;;;;;;;12.57;11.32;;;16.40;99.90;;;;;;5086688;28;20035;-83
2023/09/26 04:32:32;;;;;;;14.68;12.13;;;16.30;99.90;;;;;;5097661;28;20047;-81
2023/09/26 04:34:58;;;;;;;14.50;11.93;;;16.30;99.90;;;;;;5077082;28;20050;-83
2023/09/26 04:37:24;;;;;;;13.48;12.10;;;16.30;99.90;;;;;;5073803;28;20039;-82
2023/09/26 04:39:50;;;;;;;12.75;11.45;;;16.20;99.90;;;;;;5055648;28;20504;-79
2023/09/26 04:42:16;;;;;;;14.40;11.40;;;16.20;99.90;;;;;;5106845;27;20043;-79
2023/09/26 04:44:41;;;;;;;13.50;11.18;;;16.20;99.90;;;;;;5106216;27;20144;-81
2023/09/26 04:47:07;;;;;;;13.35;11.68;;;16.20;99.90;;;;;;5094646;27;20042;-79
2023/09/26 04:49:36;;;;;;;12.60;11.13;;;16.20;99.90;;;;;;5105637;27;20149;-79
2023/09/26 04:52:02;;;;;;;13.85;11.88;;;16.20;99.90;;;;;;5080938;27;20505;-83
2023/09/26 04:54:28;;;;;;;14.13;11.38;;;16.20;99.90;;;;;;5080405;28;20403;-82
2023/09/26 04:56:53;;;;;;;13.13;11.73;;;16.20;99.90;;;;;;5084467;28;20039;-79
2023/09/26 04:59:19;;;;;;;13.65;11.43;;;16.20;99.90;;;;;;5088685;27;20044;-81
2023/09/26 05:01:45;;;;;;;13.02;11.50;;;16.50;99.90;;;;;;5114672;27;20103;-81
2023/09/26 05:04:11;;;;;;;12.00;10.77;;;16.10;99.90;;;;;;5091642;27;20491;-80
2023/09/26 05:06:37;;;;;;;14.18;11.77;;;16.10;99.90;;;;;;5079428;27;20038;-80
2023/09/26 05:09:08;;;;;;;11.63;10.43;;;16.10;99.90;;;;;;5086077;28;20027;-81
2023/09/26 05:11:34;;;;;;;17.13;11.20;;;16.10;99.90;;;;;;5077501;27;20035;-81
2023/09/26 05:14:00;;;;;;;12.93;11.25;;;16.00;99.90;;;;;;5107091;27;20497;-78
2023/09/26 05:16:26;;;;;;;12.35;11.00;;;16.00;99.90;;;;;;5091210;27;20047;-79
2023/09/26 05:18:52;;;;;;;12.73;11.35;;;16.00;99.90;;;;;;5087573;27;20102;-80
2023/09/26 05:21:22;;;;;;;13.02;11.05;;;16.00;99.90;;;;;;5071150;27;20039;-81
2023/09/26 05:23:47;;;;;;;11.82;10.60;;;16.00;99.90;;;;;;5108249;27;20043;-79
2023/09/26 05:26:13;;;;;;;12.38;11.07;;;16.00;99.90;;;;;;5080329;27;20035;-81
2023/09/26 05:28:40;;;;;;;13.90;10.93;;;16.00;99.90;;;;;;5062499;28;20796;-81
2023/09/26 05:31:07;;;;;;;12.07;10.88;;;16.00;99.90;;;;;;5090062;27;20138;-80
2023/09/26 05:33:33;;;;;;;12.32;10.60;;;16.00;99.90;;;;;;5096059;27;20123;-82
2023/09/26 05:35:58;;;;;;;13.60;10.88;;;15.90;99.90;;;;;;5078957;27;20043;-81
2023/09/26 05:38:25;;;;;;;12.70;11.45;;;15.90;99.90;;;;;;5088435;28;20039;-82
2023/09/26 05:40:51;;;;;;;14.85;11.18;;;15.90;99.90;;;;;;5068535;27;20042;-83
2023/09/26 05:43:17;;;;;;;12.90;11.32;;;15.90;99.90;;;;;;5094351;27;20118;-82
2023/09/26 05:45:43;;;;;;;12.57;11.27;;;15.90;99.90;;;;;;5080715;28;20126;-82
2023/09/26 05:48:09;;;;;;;11.85;10.65;;;15.90;99.90;;;;;;5080325;27;20612;-81
2023/09/26 05:50:35;;;;;;;11.57;10.38;;;15.90;99.90;;;;;;5092394;27;20604;-83
2023/09/26 05:53:01;;;;;;;12.25;10.77;;;16.00;99.90;;;;;;5089230;27;20039;-80
2023/09/26 05:55:27;;;;;;;11.45;10.25;;;16.00;99.90;;;;;;5076142;28;20047;-80
2023/09/26 05:57:53;;;;;;;11.55;10.32;;;16.00;99.90;;;;;;5079093;27;20725;-80
2023/09/26 06:00:19;;;;;;;11.98;10.60;;;16.00;99.90;;;;;;5115238;27;20138;-81
2023/09/26 06:02:45;;;;;;;12.82;10.98;;;16.00;99.90;;;;;;5103553;28;20031;-80
2023/09/26 06:05:14;;;;;;;11.15;10.05;;;16.00;99.90;;;;;;5116811;27;20194;-81
2023/09/26 06:07:42;;;;;;;12.50;10.65;;;16.10;99.90;;;;;;5089450;27;20514;-80
2023/09/26 06:10:13;;;;;;;11.32;9.80;;;16.10;99.90;;;;;;5112152;27;20050;-80
2023/09/26 06:12:40;;;;;;;13.68;10.52;;;16.20;99.90;;;;;;5111884;28;20079;-80
2023/09/26 06:15:11;;;;;;;20.42;11.60;;;16.20;99.90;;;;;;5092409;27;20039;-80
2023/09/26 06:17:39;;;;;;;14.02;11.25;;;16.20;99.90;;;;;;5081127;28;20491;-81
2023/09/26 06:20:09;;;;;;;12.75;10.25;;;16.30;99.90;;;;;;5090539;27;20071;-80
2023/09/26 06:22:36;;;;;;;12.20;10.02;;;16.30;99.90;;;;;;5095852;27;20106;-81
2023/09/26 06:25:04;;;;;;;13.20;11.00;;;16.30;99.90;;;;;;5107093;28;20051;-81
2023/09/26 06:27:35;;;;;;;11.10;10.07;;;16.30;99.90;;;;;;5081874;27;20037;-81
2023/09/26 06:30:05;;;;;;;12.88;10.88;;;16.30;99.90;;;;;;5092602;27;21991;-80
2023/09/26 06:32:31;;;;;;;12.50;10.15;;;16.50;99.90;;;;;;5094244;27;20078;-81
2023/09/26 06:34:59;;;;;;;15.00;10.75;;;16.40;99.90;;;;;;5088237;27;20042;-82
2023/09/26 06:37:25;;;;;;;12.55;10.45;;;16.40;99.90;;;;;;5108118;27;20096;-79
2023/09/26 06:39:51;;;;;;;11.43;10.27;;;16.50;99.90;;;;;;5082821;28;20039;-80
2023/09/26 06:42:17;;;;;;;13.73;12.25;;;16.60;99.90;;;;;;5089411;28;20560;-62
2023/09/26 06:44:43;;;;;;;11.85;10.55;;;16.70;99.90;;;;;;5094297;28;20027;-80
2023/09/26 06:47:11;;;;;;;13.10;11.00;;;16.70;99.90;;;;;;5072565;27;20080;-80
2023/09/26 06:49:40;;;;;;;11.90;9.98;;;16.70;99.90;;;;;;5084252;27;20170;-79
2023/09/26 06:52:06;;;;;;;10.95;9.73;;;16.70;99.90;;;;;;5081028;27;20031;-79
2023/09/26 06:54:32;;;;;;;10.90;9.75;;;16.90;99.90;;;;;;5060581;28;20523;-79
2023/09/26 06:56:57;;;;;;;15.35;10.00;;;16.90;99.90;;;;;;5097554;27;20103;-79
2023/09/26 06:59:23;;;;;;;11.05;9.50;;;17.00;99.90;;;;;;5077081;27;20122;-78
2023/09/26 07:01:49;;;;;;;13.52;9.93;;;17.10;99.90;;;;;;5086594;28;20035;-78
2023/09/26 07:04:15;;;;;;;11.45;9.13;;;17.20;99.90;;;;;;5061053;28;20044;-78
2023/09/26 07:06:41;;;;;;;12.27;10.35;;;17.30;99.90;;;;;;5077890;27;20034;-78
2023/09/26 07:09:12;;;;;;;11.32;9.45;;;17.40;99.90;;;;;;5112685;27;20035;-80
2023/09/26 07:11:40;;;;;;;13.00;9.52;;;17.50;99.90;;;;;;5072489;28;20094;-81
2023/09/26 07:14:07;;;;;;;9.82;8.85;;;17.50;99.90;;;;;;5088870;27;20050;-80
2023/09/26 07:16:33;;;;;;;11.73;9.43;;;17.60;99.90;;;;;;5094575;28;20043;-80
2023/09/26 07:19:00;;;;;;;11.38;9.98;;;17.70;99.90;;;;;;5096277;27;20058;-80
2023/09/26 07:21:26;;;;;;;9.93;9.00;;;17.70;99.90;;;;;;5074194;27;20050;-81
2023/09/26 07:23:53;;;;;;;13.20;10.20;;;17.80;99.90;;;;;;5092997;27;20888;-81
2023/09/26 07:26:20;;;;;;;12.68;9.55;;;17.90;99.90;;;;;;5095268;27;20128;-79
2023/09/26 07:28:49;;;;;;;11.43;9.70;;;17.90;99.90;;;;;;5093750;27;20043;-80
2023/09/26 07:31:18;;;;;;;12.55;9.38;;;17.80;99.90;;;;;;5079890;28;20042;-81
2023/09/26 07:33:45;;;;;;;10.75;9.10;;;18.30;99.90;;;;;;5113529;28;20049;-81
2023/09/26 07:36:11;;;;;;;11.32;8.95;;;18.40;99.90;;;;;;5103000;27;20035;-81
2023/09/26 07:38:37;;;;;;;9.95;8.95;;;18.40;99.90;;;;;;5063680;28;20067;-82
2023/09/26 07:41:07;;;;;;;9.68;8.68;;;18.40;99.90;;;;;;5078833;28;20197;-81
2023/09/26 07:43:33;;;;;;;10.25;8.00;;;18.50;99.90;;;;;;5076853;28;20469;-81
2023/09/26 07:46:09;;;;;;;8.70;7.50;;;18.60;99.90;;;;;;5083194;28;20078;-81
2023/09/26 07:48:36;;;;;;;9.65;8.25;;;18.60;99.90;;;;;;5101803;28;20118;-81
2023/09/26 07:51:03;;;;;;;12.10;7.85;;;18.70;99.90;;;;;;5074118;28;20046;-80
2023/09/26 07:53:29;;;;;;;10.02;7.93;;;18.80;99.90;;;;;;5075626;28;20039;-82
2023/09/26 07:55:56;;;;;;;8.57;7.40;;;18.90;99.90;;;;;;5060177;28;20388;-80
2023/09/26 07:58:22;;;;;;;8.88;7.47;;;18.90;99.90;;;;;;5094043;28;20047;-82
2023/09/26 08:00:48;;;;;;;9.32;7.75;;;19.00;99.90;;;;;;5076629;28;20043;-81
2023/09/26 08:03:14;;;;;;;10.70;8.05;;;19.00;99.90;;;;;;5077164;28;20043;-81
2023/09/26 08:05:40;;;;;;;9.07;8.13;;;19.20;99.90;;;;;;5085684;27;20028;-82
2023/09/26 08:08:06;;;;;;;10.45;7.80;;;19.20;99.90;;;;;;5074261;28;20424;-81
2023/09/26 08:10:36;;;;;;;10.55;7.78;;;19.30;99.90;;;;;;5091736;28;20110;-82
2023/09/26 08:13:02;;;;;;;11.55;8.30;;;19.30;99.90;;;;;;5093802;28;20058;-81
2023/09/26 08:15:31;;;;;;;11.73;7.35;;;19.40;99.90;;;;;;5080719;28;20044;-80
2023/09/26 08:18:01;;;;;;;9.50;7.40;;;19.50;99.90;;;;;;5102102;27;20045;-81
2023/09/26 08:20:27;;;;;;;11.48;7.82;;;19.60;99.90;;;;;;5104392;27;20049;-81
2023/09/26 08:22:52;;;;;;;9.68;7.50;;;19.70;99.90;;;;;;5090520;28;20478;-80
2023/09/26 08:25:18;;;;;;;7.85;7.05;;;19.80;99.90;;;;;;5079297;28;20495;-81
2023/09/26 08:27:44;;;;;;;11.15;7.63;;;19.80;99.90;;;;;;5078541;28;20038;-81
2023/09/26 08:30:13;;;;;;;10.45;6.97;;;19.90;99.90;;;;;;5080751;28;20040;-82
2023/09/26 08:32:42;;;;;;;9.20;7.20;;;19.90;99.90;;;;;;5095763;28;20429;-80
2023/09/26 08:35:10;;;;;;;11.48;7.82;;;19.90;99.90;;;;;;5095946;28;20040;-82
2023/09/26 08:37:38;;;;;;;11.05;7.22;;;20.00;99.90;;;;;;5074372;28;20051;-81
2023/09/26 08:40:05;;;;;;;9.77;7.68;;;20.00;99.90;;;;;;5111738;28;20048;-81
2023/09/26 08:42:36;;;;;;;8.77;7.07;;;20.00;99.90;;;;;;5113701;28;20076;-80
2023/09/26 08:45:03;;;;;;;8.70;7.78;;;20.00;99.90;;;;;;5098834;28;20128;-82
2023/09/26 08:47:30;;;;;;;9.63;6.97;;;20.00;99.90;;;;;;5101410;28;20128;-81
2023/09/26 08:49:57;;;;;;;8.23;6.93;;;20.00;99.90;;;;;;5096772;28;20569;-81
2023/09/26 08:52:23;;;;;;;7.90;6.70;;;20.00;99.90;;;;;;5100532;28;20082;-81
2023/09/26 08:54:49;;;;;;;10.98;7.40;;;20.00;99.90;;;;;;5097139;28;20148;-81
2023/09/26 08:57:19;;;;;;;8.35;6.47;;;20.10;99.90;;;;;;5098638;27;20439;-81
2023/09/26 08:59:47;;;;;;;8.57;6.75;;;20.10;99.90;;;;;;5098867;28;20113;-81
2023/09/26 09:02:16;;;;;;;8.93;7.30;;;20.20;99.90;;;;;;5083207;28;20040;-80
2023/09/26 09:04:46;;;;;;;8.60;6.78;;;20.20;99.90;;;;;;5080962;28;20079;-80
2023/09/26 09:07:13;;;;;;;9.02;6.65;;;20.30;99.90;;;;;;5075126;28;20040;-81
2023/09/26 09:10:03;;;;;;;9.75;6.32;;;20.40;99.90;;;;;;5096212;27;20086;-81
2023/09/26 09:12:29;;;;;;;14.65;6.43;;;20.40;99.90;;;;;;5078105;28;20052;-81
2023/09/26 09:14:55;;;;;;;11.98;6.72;;;20.50;99.90;;;;;;5080035;28;20089;-81
2023/09/26 09:17:20;;;;;;;9.07;6.72;;;20.50;99.90;;;;;;5095533;28;20035;-81
2023/09/26 09:19:52;;;;;;;10.50;7.03;;;20.60;99.90;;;;;;5096501;28;20123;-81
2023/09/26 09:22:20;;;;;;;11.48;7.30;;;20.60;99.90;;;;;;5098088;28;20040;-81
2023/09/26 09:24:56;;;;;;;8.70;7.38;;;20.70;99.90;;;;;;5096248;28;20062;-81
2023/09/26 09:27:38;;;;;;;9.70;7.68;;;20.90;99.90;;;;;;5109355;28;20047;-81
2023/09/26 09:30:14;;;;;;;9.23;7.05;;;21.10;99.90;;;;;;5093954;28;20448;-82
2023/09/26 09:32:41;;;;;;;9.20;7.35;;;21.20;99.90;;;;;;5086297;28;20094;-82
2023/09/26 09:35:11;;;;;;;10.38;6.93;;;21.30;99.90;;;;;;5074787;28;20040;-82
2023/09/26 09:37:37;;;;;;;9.75;8.35;;;21.30;99.90;;;;;;5059570;28;20040;-80
2023/09/26 09:40:05;;;;;;;10.15;7.70;;;21.10;99.90;;;;;;5075757;28;20040;-79
2023/09/26 09:42:32;;;;;;;11.35;7.20;;;21.10;99.90;;;;;;5075343;28;20051;-80
2023/09/26 09:44:57;;;;;;;8.70;7.13;;;21.20;99.90;;;;;;5060786;28;20123;-81
2023/09/26 09:47:24;;;;;;;10.40;7.38;;;21.20;99.90;;;;;;5078719;28;20101;-81
2023/09/26 09:49:51;;;;;;;9.10;6.80;;;21.40;99.90;;;;;;5088483;28;20361;-81
2023/09/26 09:52:21;;;;;;;10.20;7.60;;;21.70;99.90;;;;;;5098996;28;20480;-81
2023/09/26 09:54:50;;;;;;;9.23;7.72;;;21.70;99.90;;;;;;5098748;28;20039;-81
2023/09/26 09:57:20;;;;;;;9.68;7.80;;;21.70;99.90;;;;;;5097393;28;20046;-81
2023/09/26 09:59:48;;;;;;;12.35;8.15;;;21.80;99.90;;;;;;5097457;28;20100;-81
2023/09/26 10:02:17;;;;;;;9.57;6.57;;;21.90;99.90;;;;;;5113554;28;20079;-82
2023/09/26 10:04:55;;;;;;;8.40;6.88;;;22.20;99.90;;;;;;5114697;28;20036;-81
2023/09/26 10:07:24;;;;;;;9.32;6.70;;;22.10;99.90;;;;;;5094009;28;20063;-81
2023/09/26 10:09:51;;;;;;;9.77;6.43;;;22.00;99.90;;;;;;5101281;28;20036;-81
2023/09/26 10:12:18;;;;;;;10.10;6.65;;;22.10;99.90;;;;;;5078834;28;20046;-81
2023/09/26 10:14:44;;;;;;;11.63;6.60;;;22.10;99.90;;;;;;5078518;28;20345;-80
2023/09/26 10:17:10;;;;;;;10.68;7.10;;;22.10;99.90;;;;;;5076195;28;20036;-81
2023/09/26 10:19:39;;;;;;;9.07;6.90;;;22.10;99.90;;;;;;5076670;28;20392;-82
2023/09/26 10:22:19;;;;;;;11.30;7.13;;;22.20;99.90;;;;;;5075902;28;20361;-81
2023/09/26 10:24:53;;;;;;;8.93;6.35;;;22.10;99.90;;;;;;5076320;28;20109;-81
2023/09/26 10:27:35;;;;;;;8.73;6.87;;;22.20;99.90;;;;;;5113319;28;20428;-81
2023/09/26 10:30:01;;;;;;;8.63;6.30;;;22.30;99.90;;;;;;5095137;28;20415;-81
2023/09/26 10:32:31;;;;;;;9.68;7.45;;;22.20;99.90;;;;;;5111211;28;20130;-81
2023/09/26 10:34:58;;;;;;;10.52;7.32;;;22.20;99.90;;;;;;5099073;28;20039;-82
2023/09/26 10:37:27;;;;;;;9.45;6.72;;;22.30;99.90;;;;;;5084141;28;20044;-82
2023/09/26 10:39:53;;;;;;;10.13;7.05;;;22.30;99.90;;;;;;5073498;28;20049;-82
2023/09/26 10:42:20;;;;;;;8.73;6.57;;;22.30;99.90;;;;;;5090424;28;20621;-82
2023/09/26 10:44:49;;;;;;;7.05;5.85;;;22.40;99.90;;;;;;5093492;28;20040;-82
2023/09/26 10:47:21;;;;;;;8.45;6.40;;;22.30;99.90;;;;;;5079668;28;20556;-82
2023/09/26 10:49:47;;;;;;;9.75;6.45;;;22.40;99.90;;;;;;5114704;28;20126;-82
2023/09/26 10:52:13;;;;;;;8.38;6.05;;;22.30;99.90;;;;;;5063331;28;20505;-83
2023/09/26 10:54:41;;;;;;;9.77;6.45;;;22.40;99.90;;;;;;5098185;28;20078;-81
2023/09/26 10:57:08;;;;;;;8.80;6.25;;;22.40;99.90;;;;;;5099866;28;20115;-81
2023/09/26 10:59:35;;;;;;;8.85;7.00;;;22.60;99.90;;;;;;5080189;28;20044;-81
2023/09/26 11:02:03;;;;;;;9.13;7.32;;;22.70;99.90;;;;;;5115005;28;20032;-81
2023/09/26 11:04:31;;;;;;;8.15;7.00;;;22.60;99.90;;;;;;5096785;28;20047;-81
2023/09/26 11:07:02;;;;;;;7.75;6.90;;;22.60;99.90;;;;;;5098545;28;20092;-81
2023/09/26 11:09:28;;;;;;;7.85;6.38;;;22.70;99.90;;;;;;5096300;28;20043;-80
2023/09/26 11:11:56;;;;;;;9.60;6.35;;;22.70;99.90;;;;;;5095697;28;20035;-81
2023/09/26 11:14:26;;;;;;;7.68;5.65;;;22.80;99.90;;;;;;5096639;28;20094;-81
2023/09/26 11:16:52;;;;;;;8.52;6.20;;;22.90;99.90;;;;;;5083119;28;20027;-80
2023/09/26 11:19:22;;;;;;;7.15;5.65;;;22.90;99.90;;;;;;5098302;28;20052;-80
2023/09/26 11:21:50;;;;;;;7.05;6.30;;;22.90;99.90;;;;;;5074226;28;20123;-81
2023/09/26 11:24:32;;;;;;;7.80;5.78;;;22.90;99.90;;;;;;5058733;28;20520;-81
2023/09/26 11:27:11;;;;;;;5.57;4.93;;;22.90;99.90;;;;;;5073920;28;20036;-80
2023/09/26 11:29:37;;;;;;;7.63;6.57;;;22.80;99.90;;;;;;5088756;28;20125;-82
2023/09/26 11:32:04;;;;;;;7.97;5.93;;;22.70;99.90;;;;;;5075541;28;20036;-81
2023/09/26 11:34:30;;;;;;;7.15;6.28;;;22.70;99.90;;;;;;5107331;28;20126;-82
2023/09/26 11:36:58;;;;;;;7.30;6.50;;;22.60;99.90;;;;;;5093462;28;20453;-81
2023/09/26 11:39:24;;;;;;;8.02;6.55;;;22.70;99.90;;;;;;5083138;28;20487;-80
2023/09/26 11:42:06;;;;;;;7.35;5.95;;;22.70;99.90;;;;;;5075486;28;20064;-82
2023/09/26 11:44:32;;;;;;;8.02;6.60;;;22.70;99.90;;;;;;5110128;28;20048;-82
2023/09/26 11:46:58;;;;;;;8.00;6.30;;;22.60;99.90;;;;;;5077535;28;20208;-81
2023/09/26 11:49:25;;;;;;;6.45;5.07;;;22.60;99.90;;;;;;5085091;28;20040;-82
2023/09/26 11:51:52;;;;;;;6.05;5.47;;;22.60;99.90;;;;;;5074625;28;20051;-81
2023/09/26 11:54:19;;;;;;;6.38;5.38;;;22.60;99.90;;;;;;5092969;28;20055;-80
2023/09/26 11:56:45;;;;;;;5.63;5.03;;;22.50;99.90;;;;;;5059692;28;20043;-81
2023/09/26 11:59:12;;;;;;;6.43;4.95;;;22.40;99.90;;;;;;5079437;28;20040;-80
2023/09/26 12:01:42;;;;;;;6.75;5.15;;;22.60;99.90;;;;;;5094833;28;20043;-82
2023/09/26 12:04:12;;;;;;;6.07;5.32;;;22.60;99.90;;;;;;5114108;28;20912;-81
2023/09/26 12:06:40;;;;;;;7.47;5.43;;;22.60;99.90;;;;;;5113648;28;20036;-81
2023/09/26 12:09:21;;;;;;;8.02;5.45;;;22.60;99.90;;;;;;5075039;28;20488;-81
2023/09/26 12:11:53;;;;;;;7.47;5.30;;;22.70;99.90;;;;;;5079556;28;20384;-82
2023/09/26 12:14:19;;;;;;;8.00;5.18;;;22.70;99.90;;;;;;5077263;28;20054;-82
2023/09/26 12:16:49;;;;;;;7.30;5.78;;;22.80;99.90;;;;;;5059768;28;20134;-82
2023/09/26 12:19:15;;;;;;;7.05;5.80;;;22.80;99.90;;;;;;5075865;28;20047;-81
2023/09/26 12:21:41;;;;;;;7.43;5.75;;;22.70;99.90;;;;;;5076754;28;20071;-82
2023/09/26 12:24:07;;;;;;;5.85;5.25;;;22.70;99.90;;;;;;5076609;28;20082;-82
2023/09/26 12:26:33;;;;;;;6.75;5.45;;;22.70;99.90;;;;;;5112257;28;20036;-81
2023/09/26 12:29:00;;;;;;;6.82;5.72;;;22.60;99.90;;;;;;5113687;28;20047;-82
2023/09/26 12:31:26;;;;;;;6.25;5.65;;;22.80;99.90;;;;;;5080656;28;20073;-82
2023/09/26 12:33:51;;;;;;;5.97;5.25;;;22.80;99.90;;;;;;5066944;28;20147;-82
2023/09/26 12:36:18;;;;;;;9.20;6.80;;;22.90;99.90;;;;;;5092682;28;20450;-81
2023/09/26 12:38:44;;;;;;;6.78;5.63;;;22.80;99.90;;;;;;5078282;28;20101;-81
2023/09/26 12:41:10;;;;;;;11.63;6.03;;;22.90;99.90;;;;;;5076485;28;20040;-82